createdAt,value
2022-11-16T00:00:15.469Z,98227.75
2022-11-16T00:02:16.959Z,98217.69
2022-11-16T00:04:18.447Z,98227.50
2022-11-16T00:06:21.081Z,98223.25
2022-11-16T00:08:22.688Z,98221.66
2022-11-16T00:10:24.193Z,98216.09
2022-11-16T00:12:25.572Z,98218.75
2022-11-16T00:14:29.813Z,98214.22
2022-11-16T00:16:31.230Z,98208.69
2022-11-16T00:18:33.116Z,98212.09
2022-11-16T00:20:34.640Z,98211.31
2022-11-16T00:22:36.013Z,98204.44
2022-11-16T00:24:37.383Z,98199.69
2022-11-16T00:26:38.751Z,98199.69
2022-11-16T00:28:40.255Z,98205.50
2022-11-16T00:30:41.668Z,98193.34
2022-11-16T00:32:42.998Z,98199.66
2022-11-16T00:34:44.393Z,98202.56
2022-11-16T00:36:46.617Z,98193.28
2022-11-16T00:38:51.146Z,98199.38
2022-11-16T00:40:52.563Z,98190.91
2022-11-16T00:42:53.900Z,98191.69
2022-11-16T00:44:55.376Z,98188.78
2022-11-16T00:46:56.745Z,98191.44
2022-11-16T00:48:58.155Z,98190.13
2022-11-16T00:50:59.508Z,98189.06
2022-11-16T00:53:00.940Z,98188.25
2022-11-16T00:55:02.282Z,98185.13
2022-11-16T00:57:03.700Z,98184.28
2022-11-16T00:59:05.278Z,98191.16
2022-11-16T01:01:08.863Z,98186.13
2022-11-16T01:03:10.950Z,98184.84
2022-11-16T01:05:12.604Z,98179.03
2022-11-16T01:07:14.093Z,98176.88
2022-11-16T01:09:15.510Z,98181.66
2022-11-16T01:11:36.271Z,98173.72
2022-11-16T01:13:37.617Z,98172.66
2022-11-16T01:15:39.009Z,98175.03
2022-11-16T01:17:40.924Z,98168.94
2022-11-16T01:19:42.405Z,98167.63
2022-11-16T01:21:43.739Z,98169.75
2022-11-16T01:23:45.220Z,98168.94
2022-11-16T01:25:46.539Z,98167.09
2022-11-16T01:27:48.003Z,98156.78
2022-11-16T01:29:49.370Z,98163.91
2022-11-16T01:31:50.778Z,98157.81
2022-11-16T01:33:52.159Z,98159.38
2022-11-16T01:35:53.521Z,98153.84
2022-11-16T01:37:54.884Z,98155.69
2022-11-16T01:39:56.412Z,98149.63
2022-11-16T01:41:57.820Z,98148.28
2022-11-16T01:44:15.570Z,98153.56
2022-11-16T01:46:16.987Z,98158.84
2022-11-16T01:48:25.861Z,98149.59
2022-11-16T01:50:27.666Z,98155.16
2022-11-16T01:52:32.649Z,98149.31
2022-11-16T01:54:40.565Z,98150.09
2022-11-16T01:56:45.248Z,98145.59
2022-11-16T01:58:47.004Z,98146.66
2022-11-16T02:00:49.159Z,98142.16
2022-11-16T02:02:51.005Z,98142.44
2022-11-16T02:04:55.239Z,98135.31
2022-11-16T02:07:05.566Z,98136.09
2022-11-16T02:09:38.725Z,98131.31
2022-11-16T02:12:11.086Z,98129.19
2022-11-16T02:14:21.383Z,98129.19
2022-11-16T02:16:49.464Z,98123.66
2022-11-16T02:19:32.245Z,98118.63
2022-11-16T02:21:42.492Z,98124.69
2022-11-16T02:24:33.032Z,98121.00
2022-11-16T02:27:19.290Z,98115.16
2022-11-16T02:29:37.910Z,98113.56
2022-11-16T02:31:46.956Z,98112.53
2022-11-16T02:33:50.097Z,98108.56
2022-11-16T02:35:56.369Z,98114.66
2022-11-16T02:38:02.605Z,98112.50
2022-11-16T02:40:07.824Z,98109.38
2022-11-16T02:42:17.059Z,98107.53
2022-11-16T02:44:23.075Z,98115.44
2022-11-16T02:46:31.122Z,98108.84
2022-11-16T02:48:43.419Z,98112.81
2022-11-16T02:50:46.664Z,98109.34
2022-11-16T02:52:48.004Z,98111.22
2022-11-16T02:54:49.423Z,98102.78
2022-11-16T02:56:57.499Z,98104.38
2022-11-16T02:58:59.775Z,98112.31
2022-11-16T03:01:06.211Z,98109.94
2022-11-16T03:03:30.904Z,98111.25
2022-11-16T03:05:45.484Z,98112.56
2022-11-16T03:08:15.004Z,98118.38
2022-11-16T03:10:40.150Z,98127.38
2022-11-16T03:12:42.146Z,98126.31
2022-11-16T03:14:58.585Z,98122.34
2022-11-16T03:17:01.944Z,98126.03
2022-11-16T03:19:07.898Z,98121.31
2022-11-16T03:21:24.184Z,98121.81
2022-11-16T03:23:25.531Z,98114.16
2022-11-16T03:25:32.956Z,98123.13
2022-11-16T03:27:44.828Z,98110.72
2022-11-16T03:30:04.726Z,98112.03
2022-11-16T03:32:16.452Z,98109.66
2022-11-16T03:34:22.455Z,98102.81
2022-11-16T03:36:33.494Z,98095.38
2022-11-16T03:38:37.700Z,98100.13
2022-11-16T03:40:40.528Z,98099.34
2022-11-16T03:42:43.816Z,98093.53
2022-11-16T03:44:47.642Z,98091.69
2022-11-16T03:46:49.028Z,98080.84
2022-11-16T03:48:57.029Z,98095.66
2022-11-16T03:50:58.449Z,98092.47
2022-11-16T03:52:59.780Z,98094.84
2022-11-16T03:55:01.227Z,98090.34
2022-11-16T03:57:02.581Z,98086.94
2022-11-16T03:59:04.487Z,98081.38
2022-11-16T04:01:06.071Z,98074.75
2022-11-16T04:03:07.613Z,98077.94
2022-11-16T04:05:28.508Z,98080.31
2022-11-16T04:07:48.324Z,98085.59
2022-11-16T04:10:08.180Z,98084.78
2022-11-16T04:12:27.860Z,98084.50
2022-11-16T04:14:48.215Z,98091.63
2022-11-16T04:17:08.063Z,98103.00
2022-11-16T04:19:28.405Z,98104.06
2022-11-16T04:21:57.335Z,98111.97
2022-11-16T04:24:13.572Z,98109.59
2022-11-16T04:26:15.284Z,98107.75
2022-11-16T04:28:19.243Z,98109.06
2022-11-16T04:30:20.783Z,98114.06
2022-11-16T04:32:40.732Z,98114.06
2022-11-16T04:35:00.457Z,98104.06
2022-11-16T04:37:20.141Z,98100.88
2022-11-16T04:39:21.895Z,98100.09
2022-11-16T04:41:42.078Z,98103.00
2022-11-16T04:43:43.448Z,98105.91
2022-11-16T04:46:03.200Z,98103.00
2022-11-16T04:48:05.024Z,98113.28
2022-11-16T04:50:07.021Z,98114.09
2022-11-16T04:52:08.859Z,98115.13
2022-11-16T04:54:10.227Z,98108.81
2022-11-16T04:56:12.415Z,98116.19
2022-11-16T04:58:13.818Z,98115.94
2022-11-16T05:00:15.829Z,98113.31
2022-11-16T05:02:17.431Z,98115.13
2022-11-16T05:04:18.796Z,98119.09
2022-11-16T05:06:20.172Z,98119.38
2022-11-16T05:08:21.523Z,98121.22
2022-11-16T05:10:22.936Z,98125.47
2022-11-16T05:12:26.270Z,98129.94
2022-11-16T05:14:27.626Z,98131.53
2022-11-16T05:16:28.953Z,98125.75
2022-11-16T05:18:30.500Z,98126.00
2022-11-16T05:20:50.557Z,98129.41
2022-11-16T05:22:56.560Z,98116.50
2022-11-16T05:24:57.998Z,98123.06
2022-11-16T05:27:04.696Z,98130.47
2022-11-16T05:29:06.055Z,98132.06
2022-11-16T05:31:07.399Z,98130.75
2022-11-16T05:33:08.728Z,98133.94
2022-11-16T05:35:10.106Z,98140.00
2022-11-16T05:37:11.861Z,98128.66
2022-11-16T05:39:13.278Z,98138.91
2022-11-16T05:41:14.694Z,98139.19
2022-11-16T05:43:16.084Z,98138.13
2022-11-16T05:45:21.023Z,98140.50
2022-11-16T05:47:22.673Z,98142.59
2022-11-16T05:49:24.393Z,98136.00
2022-11-16T05:51:25.827Z,98143.16
2022-11-16T05:53:27.200Z,98151.84
2022-11-16T05:55:28.584Z,98147.59
2022-11-16T05:57:29.941Z,98156.34
2022-11-16T05:59:31.370Z,98156.56
2022-11-16T06:01:32.758Z,98149.47
2022-11-16T06:03:35.528Z,98160.06
2022-11-16T06:05:40.488Z,98158.22
2022-11-16T06:07:42.245Z,98164.25
2022-11-16T06:09:43.735Z,98161.38
2022-11-16T06:11:45.098Z,98164.53
2022-11-16T06:13:46.468Z,98164.28
2022-11-16T06:15:53.168Z,98168.78
2022-11-16T06:17:54.540Z,98173.25
2022-11-16T06:19:55.880Z,98179.59
2022-11-16T06:21:57.232Z,98179.31
2022-11-16T06:23:58.598Z,98184.59
2022-11-16T06:26:00.361Z,98182.75
2022-11-16T06:28:06.648Z,98186.97
2022-11-16T06:30:09.400Z,98186.44
2022-11-16T06:32:10.752Z,98186.72
2022-11-16T06:34:12.102Z,98189.88
2022-11-16T06:36:13.498Z,98190.09
2022-11-16T06:38:18.595Z,98193.53
2022-11-16T06:40:19.935Z,98188.25
2022-11-16T06:42:21.354Z,98198.84
2022-11-16T06:44:22.759Z,98191.13
2022-11-16T06:46:24.649Z,98199.81
2022-11-16T06:48:26.600Z,98197.41
2022-11-16T06:50:27.951Z,98202.41
2022-11-16T06:52:29.384Z,98210.06
2022-11-16T06:54:30.748Z,98209.81
2022-11-16T06:56:34.624Z,98200.03
2022-11-16T06:58:36.330Z,98202.38
2022-11-16T07:00:38.074Z,98209.00
2022-11-16T07:02:40.107Z,98206.88
2022-11-16T07:04:41.756Z,98211.34
2022-11-16T07:06:43.093Z,98208.94
2022-11-16T07:08:44.504Z,98222.19
2022-11-16T07:10:45.851Z,98221.16
2022-11-16T07:12:47.200Z,98221.44
2022-11-16T07:14:48.641Z,98227.81
2022-11-16T07:16:52.685Z,98220.13
2022-11-16T07:18:58.975Z,98220.94
2022-11-16T07:21:09.165Z,98223.88
2022-11-16T07:23:14.217Z,98224.19
2022-11-16T07:25:15.859Z,98226.06
2022-11-16T07:27:17.235Z,98235.56
2022-11-16T07:29:19.350Z,98235.34
2022-11-16T07:31:20.735Z,98237.69
2022-11-16T07:33:22.175Z,98247.25
2022-11-16T07:35:24.910Z,98249.69
2022-11-16T07:37:26.410Z,98252.38
2022-11-16T07:39:27.813Z,98248.88
2022-11-16T07:41:29.173Z,98253.38
2022-11-16T07:43:31.974Z,98245.91
2022-11-16T07:45:33.848Z,98250.22
2022-11-16T07:47:36.768Z,98252.84
2022-11-16T07:49:38.217Z,98250.19
2022-11-16T07:51:39.616Z,98267.88
2022-11-16T07:53:42.159Z,98268.41
2022-11-16T07:55:43.492Z,98273.41
2022-11-16T07:57:47.948Z,98284.22
2022-11-16T07:59:53.395Z,98275.28
2022-11-16T08:01:59.099Z,98280.06
2022-11-16T08:04:03.547Z,98286.66
2022-11-16T08:06:12.295Z,98288.50
2022-11-16T08:08:13.696Z,98287.97
2022-11-16T08:10:15.338Z,98290.91
2022-11-16T08:12:17.386Z,98287.38
2022-11-16T08:14:19.159Z,98288.66
2022-11-16T08:16:22.267Z,98288.84
2022-11-16T08:18:23.607Z,98294.88
2022-11-16T08:20:25.072Z,98285.38
2022-11-16T08:22:26.459Z,98286.13
2022-11-16T08:24:28.075Z,98294.28
2022-11-16T08:26:29.539Z,98291.91
2022-11-16T08:28:31.781Z,98292.69
2022-11-16T08:30:33.392Z,98300.41
2022-11-16T08:32:34.801Z,98300.97
2022-11-16T08:34:36.158Z,98306.03
2022-11-16T08:36:40.264Z,98305.81
2022-11-16T08:38:41.649Z,98307.41
2022-11-16T08:40:43.004Z,98309.03
2022-11-16T08:42:44.426Z,98309.63
2022-11-16T08:44:45.806Z,98315.94
2022-11-16T08:46:47.239Z,98318.91
2022-11-16T08:48:48.699Z,98319.38
2022-11-16T08:51:16.061Z,98324.59
2022-11-16T08:53:11.470Z,98326.41
2022-11-16T08:55:13.869Z,98333.59
2022-11-16T08:57:15.225Z,98336.06
2022-11-16T08:59:16.681Z,98331.59
2022-11-16T09:01:21.557Z,98333.72
2022-11-16T09:03:22.996Z,98334.00
2022-11-16T09:05:24.411Z,98335.63
2022-11-16T09:07:25.817Z,98342.22
2022-11-16T09:09:27.155Z,98341.19
2022-11-16T09:11:29.087Z,98340.94
2022-11-16T09:13:30.435Z,98350.94
2022-11-16T09:15:32.004Z,98347.50
2022-11-16T09:17:33.421Z,98344.88
2022-11-16T09:19:34.765Z,98354.16
2022-11-16T09:21:37.517Z,98353.03
2022-11-16T09:23:38.941Z,98348.03
2022-11-16T09:25:40.267Z,98349.38
2022-11-16T09:27:41.793Z,98359.16
2022-11-16T09:29:43.201Z,98372.16
2022-11-16T09:31:44.615Z,98362.38
2022-11-16T09:33:48.662Z,98363.19
2022-11-16T09:35:50.010Z,98368.75
2022-11-16T09:37:51.349Z,98368.75
2022-11-16T09:39:52.756Z,98368.66
2022-11-16T09:42:07.219Z,98369.66
2022-11-16T09:44:40.850Z,98359.88
2022-11-16T09:46:49.572Z,98375.25
2022-11-16T09:48:51.834Z,98370.31
2022-11-16T09:50:56.815Z,98379.84
2022-11-16T09:53:13.353Z,98381.50
2022-11-16T09:55:26.291Z,98377.25
2022-11-16T09:57:37.090Z,98383.56
2022-11-16T09:59:41.799Z,98373.28
2022-11-16T10:01:56.735Z,98387.63
2022-11-16T10:04:08.932Z,98381.88
2022-11-16T10:06:22.009Z,98385.63
2022-11-16T10:08:58.726Z,98388.03
2022-11-16T10:11:00.100Z,98375.09
2022-11-16T10:13:30.450Z,98381.91
2022-11-16T10:16:04.097Z,98380.00
2022-11-16T10:18:37.471Z,98382.91
2022-11-16T10:20:47.944Z,98382.59
2022-11-16T10:23:11.529Z,98381.31
2022-11-16T10:25:22.889Z,98388.81
2022-11-16T10:28:09.249Z,98382.22
2022-11-16T10:30:14.740Z,98381.72
2022-11-16T10:32:27.964Z,98394.44
2022-11-16T10:34:56.520Z,98385.53
2022-11-16T10:37:07.673Z,98393.50
2022-11-16T10:39:13.940Z,98382.34
2022-11-16T10:41:25.898Z,98375.03
2022-11-16T10:43:30.585Z,98369.50
2022-11-16T10:45:38.584Z,98365.53
2022-11-16T10:47:50.722Z,98357.28
2022-11-16T10:50:02.237Z,98360.50
2022-11-16T10:52:03.755Z,98345.13
2022-11-16T10:54:16.105Z,98348.31
2022-11-16T10:56:30.113Z,98347.50
2022-11-16T10:58:50.552Z,98348.56
2022-11-16T11:00:52.072Z,98336.91
2022-11-16T11:02:53.513Z,98329.47
2022-11-16T11:05:08.095Z,98335.06
2022-11-16T11:07:29.267Z,98333.19
2022-11-16T11:09:30.683Z,98324.47
2022-11-16T11:11:50.443Z,98328.69
2022-11-16T11:14:04.812Z,98326.03
2022-11-16T11:16:17.687Z,98327.63
2022-11-16T11:18:26.180Z,98331.63
2022-11-16T11:20:27.571Z,98323.13
2022-11-16T11:22:29.060Z,98328.97
2022-11-16T11:24:44.260Z,98323.91
2022-11-16T11:26:52.990Z,98324.47
2022-11-16T11:28:54.842Z,98326.56
2022-11-16T11:31:01.502Z,98320.75
2022-11-16T11:33:11.229Z,98320.75
2022-11-16T11:35:24.632Z,98324.72
2022-11-16T11:37:29.436Z,98327.09
2022-11-16T11:39:36.445Z,98310.94
2022-11-16T11:41:43.704Z,98305.06
2022-11-16T11:44:05.152Z,98305.34
2022-11-16T11:46:15.299Z,98305.31
2022-11-16T11:48:37.801Z,98300.03
2022-11-16T11:50:42.047Z,98292.91
2022-11-16T11:52:46.400Z,98296.91
2022-11-16T11:54:52.580Z,98294.78
2022-11-16T11:56:54.390Z,98288.94
2022-11-16T11:58:56.498Z,98292.13
2022-11-16T12:00:57.836Z,98296.88
2022-11-16T12:03:35.605Z,98280.44
2022-11-16T12:06:02.104Z,98287.63
2022-11-16T12:08:21.626Z,98290.28
2022-11-16T12:10:48.892Z,98288.13
2022-11-16T12:13:05.453Z,98289.75
2022-11-16T12:15:32.174Z,98283.59
2022-11-16T12:18:18.374Z,98282.72
2022-11-16T12:20:31.835Z,98289.09
2022-11-16T12:22:51.503Z,98283.28
2022-11-16T12:24:59.934Z,98281.66
2022-11-16T12:27:32.132Z,98279.44
2022-11-16T12:30:14.056Z,98282.13
2022-11-16T12:32:31.936Z,98280.53
2022-11-16T12:34:48.367Z,98280.19
2022-11-16T12:37:07.731Z,98277.22
2022-11-16T12:39:14.862Z,98275.38
2022-11-16T12:41:37.401Z,98268.78
2022-11-16T12:43:47.457Z,98264.53
2022-11-16T12:45:57.893Z,98263.31
2022-11-16T12:48:24.199Z,98263.28
2022-11-16T12:50:43.898Z,98259.31
2022-11-16T12:53:18.063Z,98260.41
2022-11-16T12:55:41.451Z,98259.69
2022-11-16T12:58:04.665Z,98256.50
2022-11-16T13:00:12.491Z,98256.63
2022-11-16T13:02:41.021Z,98246.00
2022-11-16T13:04:48.161Z,98247.53
2022-11-16T13:07:10.922Z,98251.41
2022-11-16T13:09:15.480Z,98240.56
2022-11-16T13:11:29.696Z,98240.84
2022-11-16T13:13:36.686Z,98248.25
2022-11-16T13:15:40.871Z,98234.88
2022-11-16T13:17:44.339Z,98239.38
2022-11-16T13:19:57.616Z,98232.69
2022-11-16T13:22:07.463Z,98231.69
2022-11-16T13:24:11.773Z,98233.44
2022-11-16T13:26:22.553Z,98222.88
2022-11-16T13:28:38.403Z,98231.34
2022-11-16T13:30:57.487Z,98222.16
2022-11-16T13:33:01.856Z,98219.75
2022-11-16T13:35:11.628Z,98223.13
2022-11-16T13:37:38.013Z,98219.09
2022-11-16T13:40:03.340Z,98218.50
2022-11-16T13:42:13.107Z,98215.88
2022-11-16T13:44:24.528Z,98214.59
2022-11-16T13:46:55.921Z,98217.31
2022-11-16T13:48:58.106Z,98222.66
2022-11-16T13:51:22.845Z,98219.78
2022-11-16T13:54:42.657Z,98221.91
2022-11-16T13:56:01.775Z,98215.03
2022-11-16T13:58:06.190Z,98219.31
2022-11-16T14:00:11.292Z,98218.50
2022-11-16T14:02:29.465Z,98218.78
2022-11-16T14:04:41.908Z,98219.31
2022-11-16T14:06:43.212Z,98217.44
2022-11-16T14:08:45.312Z,98220.88
2022-11-16T14:10:49.999Z,98221.41
2022-11-16T14:12:54.005Z,98221.41
2022-11-16T14:15:21.964Z,98228.28
2022-11-16T14:17:55.062Z,98236.75
2022-11-16T14:19:56.896Z,98222.72
2022-11-16T14:22:12.455Z,98226.75
2022-11-16T14:24:40.901Z,98209.25
2022-11-16T14:27:16.881Z,98210.03
2022-11-16T14:29:31.871Z,98211.88
2022-11-16T14:31:56.686Z,98200.75
2022-11-16T14:34:00.416Z,98203.94
2022-11-16T14:36:04.418Z,98199.69
2022-11-16T14:38:17.757Z,98199.63
2022-11-16T14:40:20.021Z,98203.31
2022-11-16T14:42:48.394Z,98193.78
2022-11-16T14:45:11.749Z,98198.19
2022-11-16T14:47:25.292Z,98197.75
2022-11-16T14:49:28.622Z,98196.03
2022-11-16T14:51:35.350Z,98197.41
2022-11-16T14:53:41.599Z,98204.09
2022-11-16T14:55:45.819Z,98199.06
2022-11-16T14:57:47.695Z,98192.75
2022-11-16T15:00:06.001Z,98197.53
2022-11-16T15:02:18.920Z,98195.47
2022-11-16T15:04:22.056Z,98201.03
2022-11-16T15:06:25.887Z,98196.25
2022-11-16T15:08:42.827Z,98195.75
2022-11-16T15:10:51.075Z,98199.19
2022-11-16T15:12:55.753Z,98198.34
2022-11-16T15:15:01.104Z,98191.22
2022-11-16T15:17:02.926Z,98194.13
2022-11-16T15:19:12.478Z,98203.38
2022-11-16T15:21:24.064Z,98193.34
2022-11-16T15:23:30.403Z,98198.88
2022-11-16T15:25:35.945Z,98195.41
2022-11-16T15:27:40.593Z,98187.72
2022-11-16T15:29:42.049Z,98188.25
2022-11-16T15:31:45.195Z,98196.97
2022-11-16T15:33:46.736Z,98195.38
2022-11-16T15:35:48.303Z,98196.44
2022-11-16T15:38:16.619Z,98192.97
2022-11-16T15:40:18.012Z,98190.56
2022-11-16T15:42:20.920Z,98182.91
2022-11-16T15:44:23.573Z,98181.59
2022-11-16T15:46:31.230Z,98166.78
2022-11-16T15:48:34.004Z,98176.00
2022-11-16T15:50:35.866Z,98169.91
2022-11-16T15:52:45.455Z,98173.59
2022-11-16T15:55:03.865Z,98174.94
2022-11-16T15:57:09.728Z,98167.78
2022-11-16T15:59:27.580Z,98164.34
2022-11-16T16:01:30.349Z,98155.59
2022-11-16T16:03:35.219Z,98153.94
2022-11-16T16:05:40.954Z,98143.84
2022-11-16T16:07:43.868Z,98137.72
2022-11-16T16:09:45.319Z,98148.00
2022-11-16T16:11:46.956Z,98147.97
2022-11-16T16:14:10.697Z,98154.59
2022-11-16T16:16:12.174Z,98147.97
2022-11-16T16:18:39.385Z,98154.84
2022-11-16T16:20:48.716Z,98153.03
2022-11-16T16:22:51.482Z,98150.38
2022-11-16T16:24:53.575Z,98140.34
2022-11-16T16:26:55.050Z,98133.78
2022-11-16T16:28:56.783Z,98132.72
2022-11-16T16:30:58.147Z,98129.03
2022-11-16T16:32:59.744Z,98131.66
2022-11-16T16:35:03.056Z,98122.94
2022-11-16T16:37:04.416Z,98116.06
2022-11-16T16:39:05.772Z,98114.97
2022-11-16T16:41:07.638Z,98113.66
2022-11-16T16:43:09.025Z,98109.69
2022-11-16T16:45:35.102Z,98106.78
2022-11-16T16:47:36.471Z,98106.78
2022-11-16T16:49:38.120Z,98106.78
2022-11-16T16:51:39.494Z,98111.25
2022-11-16T16:53:40.822Z,98106.78
2022-11-16T16:55:43.132Z,98102.00
2022-11-16T16:57:44.497Z,98119.16
2022-11-16T16:59:48.056Z,98113.66
2022-11-16T17:01:50.588Z,98119.19
2022-11-16T17:03:51.948Z,98121.06
2022-11-16T17:05:59.595Z,98127.38
2022-11-16T17:08:01.089Z,98131.91
2022-11-16T17:10:02.468Z,98132.94
2022-11-16T17:12:04.288Z,98123.72
2022-11-16T17:14:05.830Z,98123.72
2022-11-16T17:16:07.534Z,98125.84
2022-11-16T17:18:09.231Z,98119.78
2022-11-16T17:20:11.501Z,98108.13
2022-11-16T17:22:13.979Z,98104.16
2022-11-16T17:24:15.371Z,98099.94
2022-11-16T17:26:17.259Z,98104.13
2022-11-16T17:28:18.710Z,98105.97
2022-11-16T17:30:20.212Z,98098.84
2022-11-16T17:32:21.585Z,98099.38
2022-11-16T17:34:23.035Z,98093.28
2022-11-16T17:36:24.383Z,98090.94
2022-11-16T17:38:25.881Z,98086.44
2022-11-16T17:40:27.335Z,98081.97
2022-11-16T17:42:28.710Z,98077.72
2022-11-16T17:44:30.381Z,98082.97
2022-11-16T17:46:31.823Z,98076.84
2022-11-16T17:48:33.979Z,98085.53
2022-11-16T17:50:35.360Z,98074.13
2022-11-16T17:52:36.743Z,98082.75
2022-11-16T17:54:38.135Z,98080.63
2022-11-16T17:56:39.533Z,98082.28
2022-11-16T17:58:41.465Z,98074.88
2022-11-16T18:00:42.852Z,98076.47
2022-11-16T18:02:44.263Z,98073.28
2022-11-16T18:04:50.709Z,98073.22
2022-11-16T18:06:52.500Z,98082.63
2022-11-16T18:08:54.143Z,98075.69
2022-11-16T18:10:55.573Z,98078.56
2022-11-16T18:12:57.062Z,98069.31
2022-11-16T18:15:26.518Z,98078.56
2022-11-16T18:17:20.036Z,98076.16
2022-11-16T18:19:23.376Z,98075.03
2022-11-16T18:21:25.530Z,98069.94
2022-11-16T18:23:30.077Z,98073.06
2022-11-16T18:25:34.572Z,98067.78
2022-11-16T18:27:38.500Z,98073.25
2022-11-16T18:29:40.145Z,98060.56
2022-11-16T18:31:42.159Z,98063.19
2022-11-16T18:33:44.331Z,98061.50
2022-11-16T18:35:45.812Z,98048.56
2022-11-16T18:37:47.153Z,98053.22
2022-11-16T18:39:48.599Z,98042.97
2022-11-16T18:41:55.015Z,98042.66
2022-11-16T18:43:59.006Z,98035.50
2022-11-16T18:46:00.655Z,98033.91
2022-11-16T18:48:01.983Z,98036.72
2022-11-16T18:50:06.002Z,98029.84
2022-11-16T18:52:07.400Z,98042.97
2022-11-16T18:54:09.785Z,98034.78
2022-11-16T18:56:11.858Z,98033.69
2022-11-16T18:58:43.486Z,98032.63
2022-11-16T19:00:34.657Z,98031.78
2022-11-16T19:02:36.058Z,98036.75
2022-11-16T19:04:39.936Z,98038.50
2022-11-16T19:06:41.325Z,98034.63
2022-11-16T19:08:43.578Z,98028.25
2022-11-16T19:10:45.028Z,98031.31
2022-11-16T19:12:46.410Z,98034.97
2022-11-16T19:14:47.812Z,98035.25
2022-11-16T19:16:55.638Z,98030.72
2022-11-16T19:18:58.488Z,98025.44
2022-11-16T19:21:11.070Z,98024.03
2022-11-16T19:23:12.540Z,98030.59
2022-11-16T19:25:13.969Z,98038.97
2022-11-16T19:27:16.618Z,98038.41
2022-11-16T19:29:18.008Z,98034.94
2022-11-16T19:31:20.690Z,98037.56
2022-11-16T19:33:22.121Z,98020.97
2022-11-16T19:35:23.822Z,98025.97
2022-11-16T19:37:25.755Z,98024.66
2022-11-16T19:39:27.188Z,98016.72
2022-11-16T19:41:28.597Z,98020.69
2022-11-16T19:43:30.041Z,98026.25
2022-11-16T19:45:31.764Z,98022.28
2022-11-16T19:47:33.124Z,98020.97
2022-11-16T19:49:34.549Z,98020.09
2022-11-16T19:51:36.073Z,98019.66
2022-11-16T19:53:38.322Z,98011.69
2022-11-16T19:55:39.853Z,98023.22
2022-11-16T19:57:41.455Z,98023.19
2022-11-16T19:59:42.861Z,98024.22
2022-11-16T20:01:44.252Z,98019.56
2022-11-16T20:03:47.288Z,98014.81
2022-11-16T20:05:48.638Z,98017.16
2022-11-16T20:07:50.299Z,98011.28
2022-11-16T20:09:53.545Z,98005.00
2022-11-16T20:11:56.357Z,98006.34
2022-11-16T20:13:58.402Z,97996.31
2022-11-16T20:16:01.992Z,97994.00
2022-11-16T20:18:03.480Z,97984.78
2022-11-16T20:20:05.277Z,97994.06
2022-11-16T20:22:06.764Z,97980.13
2022-11-16T20:24:12.040Z,97973.56
2022-11-16T20:26:14.362Z,97969.59
2022-11-16T20:28:15.760Z,97968.25
2022-11-16T20:30:17.395Z,97969.78
2022-11-16T20:32:18.891Z,97968.13
2022-11-16T20:34:22.058Z,97970.44
2022-11-16T20:36:25.250Z,97963.84
2022-11-16T20:38:26.613Z,97966.47
2022-11-16T20:40:28.048Z,97956.53
2022-11-16T20:42:29.416Z,97955.97
2022-11-16T20:44:36.456Z,97954.63
2022-11-16T20:46:38.434Z,97950.88
2022-11-16T20:48:41.127Z,97940.91
2022-11-16T20:50:42.576Z,97934.63
2022-11-16T20:52:47.245Z,97932.59
2022-11-16T20:54:52.853Z,97923.69
2022-11-16T20:56:54.236Z,97927.59
2022-11-16T20:58:57.874Z,97928.94
2022-11-16T21:01:01.177Z,97929.97
2022-11-16T21:03:08.517Z,97929.47
2022-11-16T21:05:09.918Z,97921.34
2022-11-16T21:07:11.360Z,97925.81
2022-11-16T21:09:15.519Z,97921.84
2022-11-16T21:11:19.719Z,97919.25
2022-11-16T21:13:40.365Z,97916.19
2022-11-16T21:15:41.739Z,97912.84
2022-11-16T21:17:43.209Z,97915.19
2022-11-16T21:20:05.399Z,97915.03
2022-11-16T21:22:05.947Z,97911.63
2022-11-16T21:24:11.282Z,97901.47
2022-11-16T21:26:14.986Z,97906.59
2022-11-16T21:28:20.109Z,97897.47
2022-11-16T21:30:27.199Z,97891.59
2022-11-16T21:32:28.589Z,97895.56
2022-11-16T21:34:34.620Z,97891.75
2022-11-16T21:36:39.336Z,97894.69
2022-11-16T21:38:41.380Z,97885.25
2022-11-16T21:43:09.078Z,97868.50
2022-11-16T21:45:11.565Z,97870.34
2022-11-16T21:47:13.265Z,97866.16
2022-11-16T21:49:14.602Z,97858.53
2022-11-16T21:51:18.220Z,97860.63
2022-11-16T21:53:19.607Z,97855.63
2022-11-16T21:55:20.998Z,97851.97
2022-11-16T21:57:22.869Z,97847.22
2022-11-16T21:59:24.311Z,97840.38
2022-11-16T22:01:45.695Z,97835.44
2022-11-16T22:03:48.391Z,97838.34
2022-11-16T22:06:12.709Z,97837.03
2022-11-16T22:08:17.708Z,97828.09
2022-11-16T22:10:19.224Z,97828.63
2022-11-16T22:12:20.838Z,97823.09
2022-11-16T22:14:22.229Z,97814.34
2022-11-16T22:16:23.829Z,97817.75
2022-11-16T22:18:25.233Z,97823.56
2022-11-16T22:20:26.612Z,97804.28
2022-11-16T22:22:28.394Z,97813.53
2022-11-16T22:24:30.608Z,97807.22
2022-11-16T22:26:32.079Z,97797.19
2022-11-16T22:28:34.219Z,97791.13
2022-11-16T22:30:36.126Z,97792.19
2022-11-16T22:32:37.601Z,97793.75
2022-11-16T22:34:39.128Z,97785.34
2022-11-16T22:36:40.500Z,97776.91
2022-11-16T22:38:41.895Z,97778.53
2022-11-16T22:40:52.258Z,97772.75
2022-11-16T22:42:56.967Z,97764.06
2022-11-16T22:44:58.373Z,97758.78
2022-11-16T22:46:59.799Z,97754.84
2022-11-16T22:49:01.164Z,97742.19
2022-11-16T22:51:12.063Z,97741.13
2022-11-16T22:53:14.647Z,97736.38
2022-11-16T22:55:16.062Z,97737.16
2022-11-16T22:57:17.417Z,97735.34
2022-11-16T22:59:18.792Z,97731.63
2022-11-16T23:01:20.882Z,97724.50
2022-11-16T23:03:22.285Z,97716.59
2022-11-16T23:05:23.737Z,97715.28
2022-11-16T23:07:25.137Z,97714.75
2022-11-16T23:09:26.616Z,97710.28
2022-11-16T23:11:47.068Z,97707.63
2022-11-16T23:14:07.948Z,97704.47
2022-11-16T23:16:09.328Z,97700.50
2022-11-16T23:18:10.785Z,97685.47
2022-11-16T23:20:30.865Z,97687.31
2022-11-16T23:22:50.683Z,97674.09
2022-11-16T23:25:10.545Z,97670.69
2022-11-16T23:27:29.891Z,97664.88
2022-11-16T23:29:31.285Z,97672.00
2022-11-16T23:31:32.620Z,97664.63
2022-11-16T23:33:46.087Z,97656.16
2022-11-16T23:35:47.478Z,97659.59
2022-11-16T23:38:08.047Z,97655.66
2022-11-16T23:40:10.008Z,97650.38
2022-11-16T23:42:30.700Z,97650.63
2022-11-16T23:44:32.043Z,97643.75
2022-11-16T23:46:33.816Z,97641.66
2022-11-16T23:48:35.209Z,97640.06
2022-11-16T23:50:37.118Z,97628.22
2022-11-16T23:52:38.481Z,97632.16
2022-11-16T23:54:39.887Z,97617.38
2022-11-16T23:56:41.272Z,97617.38
2022-11-16T23:58:42.616Z,97616.56
